createdAt,value
2018-05-10T00:02:06.710Z,9.65
2018-05-10T00:04:34.222Z,10.15
2018-05-10T00:07:01.749Z,9.20
2018-05-10T00:09:29.298Z,9.85
2018-05-10T00:11:56.889Z,9.48
2018-05-10T00:14:24.453Z,9.43
2018-05-10T00:16:52.623Z,9.77
2018-05-10T00:19:20.148Z,11.07
2018-05-10T00:21:48.303Z,8.73
2018-05-10T00:24:16.661Z,9.23
2018-05-10T00:26:44.111Z,9.60
2018-05-10T00:29:11.613Z,10.82
2018-05-10T00:31:39.127Z,10.23
2018-05-10T00:34:06.634Z,10.60
2018-05-10T00:36:34.143Z,9.93
2018-05-10T00:39:01.651Z,10.95
2018-05-10T00:41:32.941Z,12.55
2018-05-10T00:44:00.503Z,10.18
2018-05-10T00:46:28.039Z,9.18
2018-05-10T00:48:55.547Z,13.48
2018-05-10T00:51:23.838Z,13.05
2018-05-10T00:53:52.106Z,10.85
2018-05-10T00:56:20.387Z,11.57
2018-05-10T00:58:48.671Z,11.60
2018-05-10T01:01:16.945Z,11.95
2018-05-10T01:03:45.272Z,13.88
2018-05-10T01:06:12.772Z,13.38
2018-05-10T01:08:41.063Z,12.48
2018-05-10T01:11:09.345Z,13.23
2018-05-10T01:13:36.857Z,16.67
2018-05-10T01:16:04.355Z,12.37
2018-05-10T01:18:33.204Z,12.98
2018-05-10T01:21:00.713Z,11.77
2018-05-10T01:23:28.348Z,13.23
2018-05-10T01:25:55.845Z,13.45
2018-05-10T01:28:23.365Z,11.05
2018-05-10T01:30:50.897Z,11.35
2018-05-10T01:33:18.402Z,11.00
2018-05-10T01:35:58.464Z,13.52
2018-05-10T01:38:26.017Z,12.27
2018-05-10T01:40:54.298Z,10.43
2018-05-10T01:43:22.558Z,11.90
2018-05-10T01:45:50.833Z,11.93
2018-05-10T01:48:19.097Z,14.07
2018-05-10T01:50:46.599Z,10.82
2018-05-10T01:53:14.098Z,11.70
2018-05-10T01:55:41.618Z,13.80
2018-05-10T01:58:09.130Z,12.93
2018-05-10T02:00:36.649Z,12.30
2018-05-10T02:03:04.145Z,12.05
2018-05-10T02:05:31.666Z,12.20
2018-05-10T02:07:59.457Z,13.02
2018-05-10T02:10:26.976Z,11.60
2018-05-10T02:12:54.491Z,12.00
2018-05-10T02:15:22.003Z,12.05
2018-05-10T02:17:49.521Z,12.85
2018-05-10T02:20:17.792Z,13.40
2018-05-10T02:22:45.308Z,12.40
2018-05-10T02:25:12.822Z,13.10
2018-05-10T02:27:41.105Z,16.95
2018-05-10T02:30:09.372Z,13.23
2018-05-10T02:32:37.670Z,13.50
2018-05-10T02:35:05.170Z,13.65
2018-05-10T02:37:32.671Z,13.85
2018-05-10T02:40:00.950Z,15.18
2018-05-10T02:42:29.218Z,15.20
2018-05-10T02:44:57.544Z,15.40
2018-05-10T02:47:25.778Z,14.70
2018-05-10T02:49:54.058Z,15.07
2018-05-10T02:52:22.573Z,14.30
2018-05-10T02:54:50.122Z,14.43
2018-05-10T02:57:17.642Z,13.95
2018-05-10T02:59:45.153Z,14.20
2018-05-10T03:02:12.653Z,14.80
2018-05-10T03:04:40.175Z,14.77
2018-05-10T03:07:07.685Z,15.70
2018-05-10T03:09:35.189Z,18.00
2018-05-10T03:12:02.712Z,16.25
2018-05-10T03:14:30.990Z,15.05
2018-05-10T03:16:59.489Z,14.98
2018-05-10T03:19:26.992Z,15.35
2018-05-10T03:21:54.505Z,14.50
2018-05-10T03:24:22.000Z,14.82
2018-05-10T03:26:49.537Z,14.23
2018-05-10T03:29:17.059Z,14.48
2018-05-10T03:31:45.688Z,14.32
2018-05-10T03:34:13.469Z,14.55
2018-05-10T03:36:41.108Z,14.05
2018-05-10T03:39:08.654Z,15.02
2018-05-10T03:41:36.177Z,14.57
2018-05-10T03:44:03.701Z,14.25
2018-05-10T03:46:31.316Z,14.93
2018-05-10T03:48:59.504Z,14.02
2018-05-10T03:51:27.786Z,14.02
2018-05-10T03:53:55.297Z,15.85
2018-05-10T03:56:22.825Z,15.27
2018-05-10T03:58:50.378Z,14.35
2018-05-10T04:01:17.887Z,17.27
2018-05-10T04:03:57.421Z,16.23
2018-05-10T04:06:36.752Z,14.90
2018-05-10T04:09:16.182Z,16.00
2018-05-10T04:11:43.684Z,15.23
2018-05-10T04:14:11.960Z,15.48
2018-05-10T04:16:40.230Z,15.20
2018-05-10T04:19:08.534Z,15.18
2018-05-10T04:21:36.046Z,16.27
2018-05-10T04:24:03.577Z,15.02
2018-05-10T04:26:31.070Z,15.23
2018-05-10T04:28:58.623Z,15.73
2018-05-10T04:31:26.157Z,15.13
2018-05-10T04:33:57.760Z,15.38
2018-05-10T04:36:26.188Z,16.85
2018-05-10T04:38:53.745Z,15.68
2018-05-10T04:41:21.327Z,16.77
2018-05-10T04:43:52.877Z,15.88
2018-05-10T04:46:20.949Z,14.60
2018-05-10T04:48:48.450Z,17.33
2018-05-10T04:51:16.753Z,16.67
2018-05-10T04:53:48.478Z,16.55
2018-05-10T04:56:16.772Z,16.65
2018-05-10T04:58:45.045Z,15.38
2018-05-10T05:01:13.326Z,14.68
2018-05-10T05:03:41.612Z,15.18
2018-05-10T05:06:09.118Z,14.63
2018-05-10T05:08:36.642Z,15.18
2018-05-10T05:11:04.154Z,14.75
2018-05-10T05:13:31.781Z,14.00
2018-05-10T05:15:59.329Z,15.43
2018-05-10T05:18:26.893Z,14.93
2018-05-10T05:20:54.552Z,15.10
2018-05-10T05:23:22.148Z,12.90
2018-05-10T05:25:50.394Z,12.07
2018-05-10T05:28:17.953Z,13.13
2018-05-10T05:30:45.498Z,13.75
2018-05-10T05:33:13.069Z,12.80
2018-05-10T05:35:41.272Z,12.40
2018-05-10T05:38:08.791Z,11.82
2018-05-10T05:40:36.318Z,11.98
2018-05-10T05:43:09.006Z,12.55
2018-05-10T05:45:36.618Z,12.13
2018-05-10T06:01:04.971Z,12.52
2018-05-10T06:03:32.771Z,11.52
2018-05-10T06:06:00.309Z,10.27
2018-05-10T06:08:27.847Z,12.45
2018-05-10T06:10:55.346Z,9.95
2018-05-10T06:13:22.885Z,13.73
2018-05-10T06:15:50.572Z,15.93
2018-05-10T06:18:17.966Z,12.13
2018-05-10T06:20:45.467Z,12.63
2018-05-10T06:23:13.148Z,11.73
2018-05-10T06:25:40.727Z,10.75
2018-05-10T06:28:09.016Z,10.73
2018-05-10T06:30:37.309Z,10.35
2018-05-10T06:33:08.645Z,10.80
2018-05-10T06:35:36.965Z,10.02
2018-05-10T06:38:04.630Z,12.65
2018-05-10T06:40:36.761Z,10.70
2018-05-10T06:43:04.278Z,13.18
2018-05-10T06:45:31.797Z,10.10
2018-05-10T06:47:59.301Z,12.05
2018-05-10T06:50:26.843Z,17.40
2018-05-10T06:52:54.336Z,12.23
2018-05-10T06:55:22.653Z,10.70
2018-05-10T06:57:50.253Z,9.43
2018-05-10T07:00:17.808Z,10.32
2018-05-10T07:02:46.030Z,12.60
2018-05-10T07:05:13.654Z,10.15
2018-05-10T07:07:41.161Z,12.00
2018-05-10T07:10:08.673Z,10.48
2018-05-10T07:12:36.181Z,9.75
2018-05-10T07:16:53.078Z,11.23
2018-05-10T07:19:21.491Z,9.05
2018-05-10T07:21:49.777Z,10.73
2018-05-10T07:24:17.301Z,13.68
2018-05-10T07:39:44.866Z,10.27
2018-05-10T07:42:12.436Z,9.05
2018-05-10T07:44:40.555Z,13.15
2018-05-10T07:47:08.753Z,11.57
2018-05-10T07:49:37.071Z,10.82
2018-05-10T07:52:04.625Z,10.73
2018-05-10T07:54:32.149Z,11.80
2018-05-10T07:57:00.449Z,10.30
2018-05-10T07:59:27.953Z,9.57
2018-05-10T08:01:55.780Z,7.40
2018-05-10T08:04:24.271Z,7.82
2018-05-10T08:06:51.789Z,7.28
2018-05-10T08:09:20.205Z,8.55
2018-05-10T08:11:47.768Z,8.32
2018-05-10T08:14:15.364Z,7.82
2018-05-10T08:16:47.026Z,7.62
2018-05-10T08:19:14.537Z,5.78
2018-05-10T08:21:42.120Z,10.73
2018-05-10T08:24:09.785Z,7.80
2018-05-10T08:26:37.259Z,8.38
2018-05-10T08:29:04.854Z,7.28
2018-05-10T08:31:33.135Z,10.43
2018-05-10T08:34:03.159Z,8.70
2018-05-10T08:36:31.520Z,9.30
2018-05-10T08:38:59.130Z,9.25
2018-05-10T08:41:27.702Z,11.30
2018-05-10T08:43:55.830Z,10.15
2018-05-10T08:46:23.383Z,11.18
2018-05-10T08:48:50.883Z,10.00
2018-05-10T08:51:18.400Z,7.43
2018-05-10T08:53:45.889Z,8.88
2018-05-10T08:56:14.191Z,8.20
2018-05-10T08:58:41.834Z,9.90
2018-05-10T09:01:09.471Z,10.48
2018-05-10T09:03:37.657Z,9.73
2018-05-10T09:06:05.975Z,12.57
2018-05-10T09:08:33.483Z,8.57
2018-05-10T09:11:00.993Z,10.05
2018-05-10T09:13:28.502Z,8.75
2018-05-10T09:15:56.788Z,10.75
2018-05-10T09:18:25.054Z,8.43
2018-05-10T09:20:52.560Z,11.25
2018-05-10T09:23:20.079Z,10.40
2018-05-10T09:25:48.348Z,10.77
2018-05-10T09:28:15.894Z,10.25
2018-05-10T09:30:43.473Z,8.63
2018-05-10T09:33:11.751Z,7.05
2018-05-10T09:35:40.652Z,10.52
2018-05-10T09:38:09.039Z,16.37
2018-05-10T09:40:36.598Z,15.18
2018-05-10T09:43:05.629Z,20.08
2018-05-10T09:45:33.138Z,20.90
2018-05-10T09:48:02.385Z,20.88
2018-05-10T10:03:38.550Z,36.03
2018-05-10T10:06:06.101Z,36.67
2018-05-10T10:08:37.621Z,40.38
2018-05-10T10:11:05.131Z,39.78
2018-05-10T10:13:32.699Z,43.47
2018-05-10T10:16:00.898Z,41.37
2018-05-10T10:18:29.271Z,42.03
2018-05-10T10:20:57.565Z,46.08
2018-05-10T10:23:25.861Z,45.53
2018-05-10T10:25:53.639Z,50.40
2018-05-10T10:28:25.426Z,56.13
2018-05-10T10:30:53.043Z,53.40
2018-05-10T10:33:20.608Z,47.75
2018-05-10T10:35:48.129Z,47.80
2018-05-10T10:38:17.088Z,49.65
2018-05-10T10:40:45.325Z,50.90
2018-05-10T10:43:12.827Z,52.65
2018-05-10T10:45:40.387Z,48.22
2018-05-10T11:01:17.691Z,49.35
2018-05-10T11:03:46.103Z,53.10
2018-05-10T11:06:13.649Z,53.28
2018-05-10T11:08:41.929Z,47.90
2018-05-10T11:11:09.462Z,52.20
2018-05-10T11:13:37.188Z,50.83
2018-05-10T11:16:04.698Z,51.53
2018-05-10T11:18:33.011Z,52.13
2018-05-10T11:21:01.346Z,47.97
2018-05-10T11:23:28.864Z,49.47
2018-05-10T11:25:56.418Z,49.60
2018-05-10T11:28:23.966Z,47.62
2018-05-10T11:30:54.031Z,48.25
2018-05-10T11:33:21.630Z,48.50
2018-05-10T11:35:49.081Z,50.42
2018-05-10T11:38:17.354Z,47.00
2018-05-10T11:40:45.630Z,46.65
2018-05-10T11:43:13.942Z,47.92
2018-05-10T11:45:41.502Z,50.60
2018-05-10T11:48:09.021Z,47.40
2018-05-10T11:50:38.640Z,48.80
2018-05-10T11:53:06.929Z,51.15
2018-05-10T11:55:34.521Z,46.37
2018-05-10T11:58:02.039Z,43.40
2018-05-10T12:00:33.876Z,43.25
2018-05-10T12:03:02.107Z,42.00
2018-05-10T12:05:33.958Z,39.05
2018-05-10T12:08:01.458Z,40.60
2018-05-10T12:10:33.929Z,37.55
2018-05-10T12:13:02.281Z,38.08
2018-05-10T12:15:30.178Z,37.25
2018-05-10T12:17:57.701Z,38.03
2018-05-10T12:20:29.976Z,33.65
2018-05-10T12:22:57.604Z,34.05
2018-05-10T12:25:29.751Z,31.55
2018-05-10T12:27:57.252Z,30.80
2018-05-10T12:30:24.855Z,32.03
2018-05-10T12:32:53.124Z,30.40
2018-05-10T12:35:24.619Z,29.55
2018-05-10T12:37:52.923Z,29.67
2018-05-10T12:40:20.421Z,26.65
2018-05-10T12:42:47.942Z,25.00
2018-05-10T12:45:15.470Z,24.08
2018-05-10T12:47:44.516Z,23.42
2018-05-10T12:50:12.430Z,22.65
2018-05-10T13:05:40.686Z,19.20
2018-05-10T13:08:08.202Z,17.52
2018-05-10T13:10:35.762Z,16.67
2018-05-10T13:13:04.224Z,17.45
2018-05-10T13:15:31.811Z,15.63
2018-05-10T13:17:59.306Z,15.23
2018-05-10T13:20:29.121Z,17.55
2018-05-10T13:22:57.403Z,14.68
2018-05-10T13:25:25.714Z,15.27
2018-05-10T13:27:53.396Z,14.27
2018-05-10T13:30:25.493Z,14.77
2018-05-10T13:32:53.242Z,14.93
2018-05-10T13:35:24.903Z,13.77
2018-05-10T13:38:01.072Z,16.27
2018-05-10T13:40:28.589Z,13.98
2018-05-10T13:42:59.930Z,17.15
2018-05-10T13:45:27.991Z,14.38
2018-05-10T13:47:55.541Z,11.85
2018-05-10T13:50:23.814Z,12.30
2018-05-10T13:52:54.562Z,15.00
2018-05-10T13:55:22.094Z,15.70
2018-05-10T13:57:49.632Z,13.38
2018-05-10T14:00:21.179Z,12.93
2018-05-10T14:02:48.718Z,12.57
2018-05-10T14:05:17.066Z,13.40
2018-05-10T14:07:45.377Z,12.35
2018-05-10T14:10:13.321Z,12.23
2018-05-10T14:12:40.852Z,12.32
2018-05-10T14:15:08.378Z,17.10
2018-05-10T14:17:35.896Z,11.70
2018-05-10T14:20:03.453Z,11.57
2018-05-10T14:22:30.926Z,12.65
2018-05-10T14:24:58.441Z,10.32
2018-05-10T14:27:25.954Z,9.63
2018-05-10T14:29:53.494Z,8.77
2018-05-10T14:32:21.050Z,8.30
2018-05-10T14:34:50.046Z,12.05
2018-05-10T14:37:22.029Z,9.23
2018-05-10T14:39:50.226Z,6.50
2018-05-10T14:42:18.550Z,6.15
2018-05-10T14:44:46.825Z,6.80
2018-05-10T14:47:15.878Z,9.65
2018-05-10T14:49:43.418Z,8.43
2018-05-10T14:52:12.506Z,8.23
2018-05-10T14:54:40.100Z,7.50
2018-05-10T14:57:07.658Z,8.93
2018-05-10T14:59:35.158Z,7.95
2018-05-10T15:02:04.396Z,8.18
2018-05-10T15:04:31.900Z,8.48
2018-05-10T15:07:00.941Z,9.93
2018-05-10T15:09:30.294Z,6.95
2018-05-10T15:11:57.797Z,6.75
2018-05-10T15:14:26.798Z,7.22
2018-05-10T15:16:54.359Z,9.70
2018-05-10T15:19:22.457Z,6.12
2018-05-10T15:21:49.972Z,7.90
2018-05-10T15:24:21.330Z,5.57
2018-05-10T15:26:48.923Z,6.35
2018-05-10T15:29:16.522Z,6.43
2018-05-10T15:31:45.201Z,6.15
2018-05-10T15:34:12.803Z,5.65
2018-05-10T15:36:41.299Z,6.28
2018-05-10T15:39:08.915Z,6.68
2018-05-10T15:41:36.420Z,5.70
2018-05-10T15:44:04.648Z,5.40
2018-05-10T15:46:33.703Z,6.62
2018-05-10T15:49:01.240Z,5.87
2018-05-10T15:51:28.763Z,6.00
2018-05-10T15:53:57.187Z,5.25
2018-05-10T15:56:24.703Z,5.30
2018-05-10T15:58:53.574Z,5.78
2018-05-10T16:01:21.098Z,5.35
2018-05-10T16:03:48.621Z,5.78
2018-05-10T16:06:16.916Z,5.53
2018-05-10T16:08:44.701Z,3.97
2018-05-10T16:11:12.223Z,6.68
2018-05-10T16:13:44.610Z,4.90
2018-05-10T16:29:12.178Z,5.40
2018-05-10T16:31:40.755Z,4.25
2018-05-10T16:34:08.318Z,4.78
2018-05-10T16:36:36.578Z,3.92
2018-05-10T16:39:05.009Z,4.72
2018-05-10T16:41:32.522Z,3.40
2018-05-10T16:44:00.083Z,4.62
2018-05-10T16:46:31.419Z,4.37
2018-05-10T16:48:59.791Z,3.28
2018-05-10T16:51:27.520Z,3.85
2018-05-10T16:53:55.082Z,3.65
2018-05-10T16:56:22.604Z,5.32
2018-05-10T16:58:50.134Z,3.55
2018-05-10T17:01:18.446Z,5.72
2018-05-10T17:03:46.019Z,4.22
2018-05-10T17:06:13.575Z,3.97
2018-05-10T17:08:41.074Z,3.53
2018-05-10T17:11:08.590Z,4.55
2018-05-10T17:13:36.110Z,6.10
2018-05-10T17:16:04.404Z,6.22
2018-05-10T17:18:31.975Z,3.10
2018-05-10T17:21:00.266Z,4.05
2018-05-10T17:23:28.394Z,3.87
2018-05-10T17:25:56.670Z,4.43
2018-05-10T17:28:25.013Z,3.55
2018-05-10T17:30:52.516Z,3.62
2018-05-10T17:33:20.805Z,3.70
2018-05-10T17:35:48.329Z,3.50
2018-05-10T17:38:15.870Z,3.85
2018-05-10T17:40:43.394Z,3.20
2018-05-10T17:43:10.905Z,4.43
2018-05-10T17:45:39.204Z,6.18
2018-05-10T17:48:06.758Z,5.65
2018-05-10T17:50:35.032Z,4.35
2018-05-10T17:53:03.317Z,3.75
2018-05-10T17:55:30.814Z,5.87
2018-05-10T17:57:58.357Z,3.45
2018-05-10T18:00:25.976Z,3.95
2018-05-10T18:02:53.575Z,5.65
2018-05-10T18:05:21.138Z,3.42
2018-05-10T18:07:48.686Z,4.30
2018-05-10T18:10:16.226Z,4.65
2018-05-10T18:12:44.503Z,3.65
2018-05-10T18:15:12.786Z,3.67
2018-05-10T18:17:46.119Z,4.12
2018-05-10T18:20:13.633Z,4.57
2018-05-10T18:22:41.926Z,3.65
2018-05-10T18:25:10.700Z,4.70
2018-05-10T18:27:38.991Z,6.35
2018-05-10T18:30:07.984Z,4.97
2018-05-10T18:32:36.277Z,4.37
2018-05-10T18:35:03.949Z,6.35
2018-05-10T18:37:31.625Z,4.75
2018-05-10T18:39:59.129Z,6.00
2018-05-10T18:42:27.418Z,4.45
2018-05-10T18:44:55.701Z,4.30
2018-05-10T18:47:23.986Z,6.32
2018-05-10T18:49:51.569Z,3.87
2018-05-10T18:52:19.088Z,4.45
2018-05-10T18:54:47.423Z,4.18
2018-05-10T18:57:14.892Z,7.47
2018-05-10T18:59:42.425Z,7.65
2018-05-10T19:02:09.953Z,7.18
2018-05-10T19:04:37.475Z,5.78
2018-05-10T19:07:04.973Z,4.62
2018-05-10T19:09:32.515Z,4.60
2018-05-10T19:12:00.829Z,5.20
2018-05-10T19:14:32.639Z,4.22
2018-05-10T19:17:00.145Z,4.93
2018-05-10T19:19:29.443Z,4.80
2018-05-10T19:22:04.707Z,4.28
2018-05-10T19:24:32.735Z,5.12
2018-05-10T19:27:01.042Z,6.00
2018-05-10T19:29:29.418Z,3.75
2018-05-10T19:32:17.577Z,4.65
2018-05-10T19:34:46.093Z,3.60
2018-05-10T19:37:14.128Z,4.32
2018-05-10T19:39:41.671Z,4.70
2018-05-10T19:42:10.491Z,4.62
2018-05-10T19:44:40.135Z,4.22
2018-05-10T19:47:12.436Z,4.82
2018-05-10T19:49:39.945Z,5.70
2018-05-10T19:52:07.465Z,4.18
2018-05-10T19:54:35.075Z,4.47
2018-05-10T19:57:02.669Z,4.90
2018-05-10T19:59:34.122Z,3.97
2018-05-10T20:11:48.459Z,5.40
2018-05-10T20:14:15.987Z,4.82
2018-05-10T20:16:44.498Z,5.43
2018-05-10T20:19:12.791Z,6.15
2018-05-10T20:27:27.531Z,4.75
2018-05-10T20:29:55.098Z,6.80
2018-05-10T20:32:22.672Z,5.20
2018-05-10T20:34:50.287Z,6.00
2018-05-10T20:37:18.079Z,5.93
2018-05-10T20:39:45.674Z,8.05
2018-05-10T20:42:13.218Z,5.25
2018-05-10T20:44:41.614Z,6.50
2018-05-10T20:47:14.009Z,6.87
2018-05-10T20:49:42.894Z,6.22
2018-05-10T20:52:10.430Z,6.32
2018-05-10T20:54:38.669Z,7.05
2018-05-10T20:57:06.272Z,5.50
2018-05-10T20:59:34.277Z,6.15
2018-05-10T21:02:01.799Z,6.20
2018-05-10T21:04:29.305Z,6.72
2018-05-10T21:06:56.818Z,6.90
2018-05-10T21:09:24.848Z,6.45
2018-05-10T21:11:52.392Z,8.48
2018-05-10T21:14:19.946Z,6.05
2018-05-10T21:16:47.465Z,6.28
2018-05-10T21:19:14.982Z,5.75
2018-05-10T21:21:46.388Z,5.47
2018-05-10T21:24:13.910Z,5.95
2018-05-10T21:26:42.212Z,5.22
2018-05-10T21:29:10.509Z,5.25
2018-05-10T21:31:42.706Z,6.50
2018-05-10T21:34:10.479Z,5.05
2018-05-10T21:36:38.273Z,7.57
2018-05-10T21:39:06.553Z,5.90
2018-05-10T21:41:34.835Z,6.22
2018-05-10T21:44:03.878Z,7.68
2018-05-10T21:46:32.271Z,8.18
2018-05-10T21:48:59.836Z,6.78
2018-05-10T21:51:28.297Z,7.75
2018-05-10T21:53:55.836Z,6.70
2018-05-10T21:56:23.361Z,6.90
2018-05-10T21:58:51.674Z,9.02
2018-05-10T22:01:19.240Z,7.05
2018-05-10T22:03:47.618Z,10.45
2018-05-10T22:06:16.502Z,6.80
2018-05-10T22:08:45.323Z,6.68
2018-05-10T22:11:12.814Z,8.98
2018-05-10T22:13:41.153Z,6.72
2018-05-10T22:16:09.703Z,9.45
2018-05-10T22:18:37.372Z,8.52
2018-05-10T22:21:05.045Z,7.25
2018-05-10T22:23:32.569Z,7.85
2018-05-10T22:26:01.419Z,7.93
2018-05-10T22:28:29.970Z,8.85
2018-05-10T22:31:01.291Z,7.25
2018-05-10T22:33:29.796Z,9.77
2018-05-10T22:35:57.342Z,8.35
2018-05-10T22:38:25.158Z,8.27
2018-05-10T22:40:52.658Z,8.23
2018-05-10T22:43:20.179Z,9.70
2018-05-10T22:45:47.706Z,8.90
2018-05-10T22:48:15.228Z,8.88
2018-05-10T22:50:44.132Z,7.07
2018-05-10T22:53:11.626Z,7.60
2018-05-10T22:55:39.162Z,9.32
2018-05-10T22:58:06.674Z,7.25
2018-05-10T23:00:34.334Z,6.95
2018-05-10T23:03:01.926Z,6.37
2018-05-10T23:05:32.018Z,8.18
2018-05-10T23:08:00.368Z,7.85
2018-05-10T23:10:28.218Z,7.72
2018-05-10T23:12:59.917Z,6.75
2018-05-10T23:15:27.349Z,7.68
2018-05-10T23:17:54.852Z,8.98
2018-05-10T23:20:23.134Z,9.48
2018-05-10T23:22:51.609Z,7.53
2018-05-10T23:25:19.910Z,7.87
2018-05-10T23:27:47.437Z,8.32
2018-05-10T23:30:14.962Z,8.98
2018-05-10T23:32:42.457Z,8.30
2018-05-10T23:35:11.367Z,7.65
2018-05-10T23:37:39.675Z,11.20
2018-05-10T23:40:07.191Z,9.05
2018-05-10T23:42:35.464Z,7.87
2018-05-10T23:45:04.489Z,8.85
2018-05-10T23:47:32.395Z,8.35
2018-05-10T23:49:59.926Z,8.07
2018-05-10T23:52:27.438Z,7.37
2018-05-10T23:54:55.055Z,7.25
2018-05-10T23:57:22.553Z,9.80
2018-05-10T23:59:50.058Z,8.90
